sensor_id;sensor_type;location;lat;lon;timestamp;P1;durP1;ratioP1;P2;durP2;ratioP2
10132;SDS011;5106;50.926;7.080;2023-09-19T02:33:54;6.38;;;1.80;;
10132;SDS011;5106;50.926;7.080;2023-09-19T02:36:20;5.43;;;1.90;;
10132;SDS011;5106;50.926;7.080;2023-09-19T02:38:45;6.20;;;2.08;;
10132;SDS011;5106;50.926;7.080;2023-09-19T02:41:11;6.05;;;2.22;;
10132;SDS011;5106;50.926;7.080;2023-09-19T02:43:37;4.38;;;2.13;;
10132;SDS011;5106;50.926;7.080;2023-09-19T02:46:02;5.63;;;2.05;;
10132;SDS011;5106;50.926;7.080;2023-09-19T02:48:28;9.25;;;2.45;;
10132;SDS011;5106;50.926;7.080;2023-09-19T02:50:54;7.43;;;2.30;;
10132;SDS011;5106;50.926;7.080;2023-09-19T02:53:20;4.55;;;2.00;;
10132;SDS011;5106;50.926;7.080;2023-09-19T02:55:46;5.95;;;2.03;;
10132;SDS011;5106;50.926;7.080;2023-09-19T02:58:12;6.38;;;2.13;;
10132;SDS011;5106;50.926;7.080;2023-09-19T03:00:39;8.95;;;2.20;;
10132;SDS011;5106;50.926;7.080;2023-09-19T03:03:07;10.05;;;2.58;;
10132;SDS011;5106;50.926;7.080;2023-09-19T03:05:33;9.75;;;2.55;;
10132;SDS011;5106;50.926;7.080;2023-09-19T03:07:59;6.07;;;2.65;;
10132;SDS011;5106;50.926;7.080;2023-09-19T03:10:28;6.65;;;2.25;;
10132;SDS011;5106;50.926;7.080;2023-09-19T03:12:56;8.80;;;2.20;;
10132;SDS011;5106;50.926;7.080;2023-09-19T03:15:24;4.90;;;1.88;;
10132;SDS011;5106;50.926;7.080;2023-09-19T03:17:50;8.43;;;2.55;;
10132;SDS011;5106;50.926;7.080;2023-09-19T03:20:18;4.97;;;2.00;;
10132;SDS011;5106;50.926;7.080;2023-09-19T03:22:44;8.23;;;2.22;;
10132;SDS011;5106;50.926;7.080;2023-09-19T03:25:10;7.55;;;2.30;;
10132;SDS011;5106;50.926;7.080;2023-09-19T03:27:37;7.20;;;2.10;;
10132;SDS011;5106;50.926;7.080;2023-09-19T03:30:03;7.20;;;2.10;;
10132;SDS011;5106;50.926;7.080;2023-09-19T03:32:33;5.22;;;2.15;;
10132;SDS011;5106;50.926;7.080;2023-09-19T03:35:02;8.52;;;2.80;;
10132;SDS011;5106;50.926;7.080;2023-09-19T03:37:30;12.13;;;3.10;;
10132;SDS011;5106;50.926;7.080;2023-09-19T03:39:57;6.18;;;2.28;;
10132;SDS011;5106;50.926;7.080;2023-09-19T03:42:22;11.05;;;2.80;;
10132;SDS011;5106;50.926;7.080;2023-09-19T03:44:50;9.13;;;2.38;;
10132;SDS011;5106;50.926;7.080;2023-09-19T03:47:17;11.50;;;2.70;;
10132;SDS011;5106;50.926;7.080;2023-09-19T03:49:44;8.60;;;2.33;;
10132;SDS011;5106;50.926;7.080;2023-09-19T03:52:09;8.02;;;2.47;;
10132;SDS011;5106;50.926;7.080;2023-09-19T03:54:35;5.38;;;2.55;;
10132;SDS011;5106;50.926;7.080;2023-09-19T03:57:01;8.38;;;2.63;;
10132;SDS011;5106;50.926;7.080;2023-09-19T03:59:29;6.22;;;2.20;;
10132;SDS011;5106;50.926;7.080;2023-09-19T04:01:54;10.13;;;2.10;;
10132;SDS011;5106;50.926;7.080;2023-09-19T04:04:22;10.27;;;2.28;;
10132;SDS011;5106;50.926;7.080;2023-09-19T04:06:49;8.77;;;2.55;;
10132;SDS011;5106;50.926;7.080;2023-09-19T04:09:18;12.38;;;3.20;;
10132;SDS011;5106;50.926;7.080;2023-09-19T04:11:43;6.93;;;2.28;;
10132;SDS011;5106;50.926;7.080;2023-09-19T04:14:09;7.75;;;2.38;;
10132;SDS011;5106;50.926;7.080;2023-09-19T04:16:35;4.85;;;2.17;;
10132;SDS011;5106;50.926;7.080;2023-09-19T04:19:00;6.55;;;2.15;;
10132;SDS011;5106;50.926;7.080;2023-09-19T04:21:26;6.70;;;2.10;;
10132;SDS011;5106;50.926;7.080;2023-09-19T04:23:53;10.60;;;2.60;;
10132;SDS011;5106;50.926;7.080;2023-09-19T04:26:18;6.72;;;2.28;;
10132;SDS011;5106;50.926;7.080;2023-09-19T04:28:44;7.40;;;1.98;;
10132;SDS011;5106;50.926;7.080;2023-09-19T04:31:11;9.30;;;2.50;;
10132;SDS011;5106;50.926;7.080;2023-09-19T04:33:36;8.50;;;2.55;;
10132;SDS011;5106;50.926;7.080;2023-09-19T04:36:02;10.95;;;2.78;;
10132;SDS011;5106;50.926;7.080;2023-09-19T04:38:32;6.95;;;2.20;;
10132;SDS011;5106;50.926;7.080;2023-09-19T04:40:58;6.55;;;2.40;;
10132;SDS011;5106;50.926;7.080;2023-09-19T04:43:24;3.92;;;1.92;;
10132;SDS011;5106;50.926;7.080;2023-09-19T04:45:50;5.88;;;2.15;;
10132;SDS011;5106;50.926;7.080;2023-09-19T04:48:20;7.28;;;2.33;;
10132;SDS011;5106;50.926;7.080;2023-09-19T04:50:49;9.40;;;2.45;;
10132;SDS011;5106;50.926;7.080;2023-09-19T04:53:16;7.50;;;2.40;;
10132;SDS011;5106;50.926;7.080;2023-09-19T04:55:50;7.95;;;2.35;;
10132;SDS011;5106;50.926;7.080;2023-09-19T04:58:20;5.63;;;2.30;;
10132;SDS011;5106;50.926;7.080;2023-09-19T05:00:46;7.93;;;2.33;;
10132;SDS011;5106;50.926;7.080;2023-09-19T05:03:12;4.90;;;1.88;;
10132;SDS011;5106;50.926;7.080;2023-09-19T05:05:37;8.10;;;1.95;;
10132;SDS011;5106;50.926;7.080;2023-09-19T05:08:04;6.10;;;2.30;;
10132;SDS011;5106;50.926;7.080;2023-09-19T05:10:31;7.57;;;2.25;;
10132;SDS011;5106;50.926;7.080;2023-09-19T05:12:57;9.32;;;2.17;;
10132;SDS011;5106;50.926;7.080;2023-09-19T05:15:22;10.23;;;2.70;;
10132;SDS011;5106;50.926;7.080;2023-09-19T05:17:48;6.05;;;2.20;;
10132;SDS011;5106;50.926;7.080;2023-09-19T05:20:16;9.48;;;2.50;;
10132;SDS011;5106;50.926;7.080;2023-09-19T05:22:49;5.35;;;2.00;;
10132;SDS011;5106;50.926;7.080;2023-09-19T05:25:15;10.82;;;2.70;;
10132;SDS011;5106;50.926;7.080;2023-09-19T05:27:43;6.95;;;2.20;;
10132;SDS011;5106;50.926;7.080;2023-09-19T05:30:09;6.85;;;2.20;;
10132;SDS011;5106;50.926;7.080;2023-09-19T05:32:35;8.80;;;2.47;;
10132;SDS011;5106;50.926;7.080;2023-09-19T05:35:01;7.35;;;2.50;;
10132;SDS011;5106;50.926;7.080;2023-09-19T05:37:26;7.00;;;2.53;;
10132;SDS011;5106;50.926;7.080;2023-09-19T05:39:52;8.35;;;2.65;;
10132;SDS011;5106;50.926;7.080;2023-09-19T05:42:21;6.68;;;2.38;;
10132;SDS011;5106;50.926;7.080;2023-09-19T05:44:46;6.03;;;2.20;;
10132;SDS011;5106;50.926;7.080;2023-09-19T05:47:12;9.20;;;2.75;;
10132;SDS011;5106;50.926;7.080;2023-09-19T05:49:38;9.85;;;2.70;;
10132;SDS011;5106;50.926;7.080;2023-09-19T05:52:04;6.75;;;1.90;;
10132;SDS011;5106;50.926;7.080;2023-09-19T05:54:31;8.82;;;2.30;;
10132;SDS011;5106;50.926;7.080;2023-09-19T05:56:58;6.65;;;2.58;;
10132;SDS011;5106;50.926;7.080;2023-09-19T05:59:23;10.63;;;2.50;;
10132;SDS011;5106;50.926;7.080;2023-09-19T06:01:49;9.13;;;2.78;;
10132;SDS011;5106;50.926;7.080;2023-09-19T06:04:14;8.93;;;2.35;;
10132;SDS011;5106;50.926;7.080;2023-09-19T06:06:40;6.22;;;2.45;;
10132;SDS011;5106;50.926;7.080;2023-09-19T06:09:06;8.05;;;2.20;;
10132;SDS011;5106;50.926;7.080;2023-09-19T06:11:35;7.85;;;2.65;;
10132;SDS011;5106;50.926;7.080;2023-09-19T06:14:01;6.13;;;2.13;;
10132;SDS011;5106;50.926;7.080;2023-09-19T06:16:27;6.47;;;2.30;;
10132;SDS011;5106;50.926;7.080;2023-09-19T06:18:54;4.10;;;2.00;;
10132;SDS011;5106;50.926;7.080;2023-09-19T06:21:21;9.65;;;2.45;;
10132;SDS011;5106;50.926;7.080;2023-09-19T06:23:47;6.20;;;2.55;;
10132;SDS011;5106;50.926;7.080;2023-09-19T06:26:13;7.18;;;2.47;;
10132;SDS011;5106;50.926;7.080;2023-09-19T06:28:38;8.55;;;2.47;;
10132;SDS011;5106;50.926;7.080;2023-09-19T06:31:04;4.07;;;2.10;;
10132;SDS011;5106;50.926;7.080;2023-09-19T06:33:34;12.52;;;2.55;;
10132;SDS011;5106;50.926;7.080;2023-09-19T06:36:04;8.65;;;2.53;;
10132;SDS011;5106;50.926;7.080;2023-09-19T06:38:30;9.18;;;2.42;;
10132;SDS011;5106;50.926;7.080;2023-09-19T06:40:59;5.53;;;2.25;;
10132;SDS011;5106;50.926;7.080;2023-09-19T06:43:26;8.52;;;2.20;;
10132;SDS011;5106;50.926;7.080;2023-09-19T06:45:52;7.28;;;2.08;;
10132;SDS011;5106;50.926;7.080;2023-09-19T06:48:20;8.38;;;2.83;;
10132;SDS011;5106;50.926;7.080;2023-09-19T06:50:46;5.88;;;2.17;;
10132;SDS011;5106;50.926;7.080;2023-09-19T06:53:13;7.70;;;1.95;;
10132;SDS011;5106;50.926;7.080;2023-09-19T06:55:39;7.47;;;2.20;;
10132;SDS011;5106;50.926;7.080;2023-09-19T06:58:05;8.57;;;2.28;;
10132;SDS011;5106;50.926;7.080;2023-09-19T07:00:31;11.27;;;2.88;;
10132;SDS011;5106;50.926;7.080;2023-09-19T07:02:59;10.25;;;2.90;;
10132;SDS011;5106;50.926;7.080;2023-09-19T07:05:26;7.55;;;2.20;;
10132;SDS011;5106;50.926;7.080;2023-09-19T07:07:52;9.45;;;3.03;;
10132;SDS011;5106;50.926;7.080;2023-09-19T07:10:20;5.43;;;1.85;;
10132;SDS011;5106;50.926;7.080;2023-09-19T07:12:53;11.05;;;2.80;;
10132;SDS011;5106;50.926;7.080;2023-09-19T07:15:34;9.15;;;2.63;;
10132;SDS011;5106;50.926;7.080;2023-09-19T07:18:03;7.22;;;2.35;;
10132;SDS011;5106;50.926;7.080;2023-09-19T07:20:29;6.43;;;2.35;;
10132;SDS011;5106;50.926;7.080;2023-09-19T07:22:57;9.05;;;2.25;;
10132;SDS011;5106;50.926;7.080;2023-09-19T07:25:24;6.47;;;2.22;;
10132;SDS011;5106;50.926;7.080;2023-09-19T07:27:51;7.60;;;2.40;;
10132;SDS011;5106;50.926;7.080;2023-09-19T07:30:16;6.55;;;2.35;;
10132;SDS011;5106;50.926;7.080;2023-09-19T07:32:42;6.05;;;2.30;;
10132;SDS011;5106;50.926;7.080;2023-09-19T07:35:08;8.05;;;2.85;;
10132;SDS011;5106;50.926;7.080;2023-09-19T07:37:34;6.28;;;2.33;;
10132;SDS011;5106;50.926;7.080;2023-09-19T07:40:01;7.68;;;2.50;;
10132;SDS011;5106;50.926;7.080;2023-09-19T07:42:36;7.22;;;2.42;;
10132;SDS011;5106;50.926;7.080;2023-09-19T07:45:04;5.10;;;2.20;;
10132;SDS011;5106;50.926;7.080;2023-09-19T07:47:30;6.18;;;2.35;;
10132;SDS011;5106;50.926;7.080;2023-09-19T07:49:57;9.15;;;2.78;;
10132;SDS011;5106;50.926;7.080;2023-09-19T07:52:24;6.22;;;2.33;;
10132;SDS011;5106;50.926;7.080;2023-09-19T07:54:49;6.90;;;2.47;;
10132;SDS011;5106;50.926;7.080;2023-09-19T07:57:15;7.40;;;2.75;;
10132;SDS011;5106;50.926;7.080;2023-09-19T07:59:41;8.27;;;2.50;;
10132;SDS011;5106;50.926;7.080;2023-09-19T08:02:07;8.02;;;2.72;;
10132;SDS011;5106;50.926;7.080;2023-09-19T08:04:40;6.18;;;2.03;;
10132;SDS011;5106;50.926;7.080;2023-09-19T08:07:12;6.50;;;2.50;;
10132;SDS011;5106;50.926;7.080;2023-09-19T08:09:38;9.23;;;2.10;;
10132;SDS011;5106;50.926;7.080;2023-09-19T08:12:05;8.75;;;2.40;;
10132;SDS011;5106;50.926;7.080;2023-09-19T08:14:33;7.50;;;2.17;;
10132;SDS011;5106;50.926;7.080;2023-09-19T08:16:59;7.30;;;2.17;;
10132;SDS011;5106;50.926;7.080;2023-09-19T08:19:25;6.60;;;2.05;;
10132;SDS011;5106;50.926;7.080;2023-09-19T08:21:56;4.93;;;2.17;;
10132;SDS011;5106;50.926;7.080;2023-09-19T08:24:26;6.93;;;2.33;;
10132;SDS011;5106;50.926;7.080;2023-09-19T08:26:53;9.35;;;2.40;;
10132;SDS011;5106;50.926;7.080;2023-09-19T08:29:25;9.18;;;2.17;;
10132;SDS011;5106;50.926;7.080;2023-09-19T08:31:56;7.00;;;2.47;;
10132;SDS011;5106;50.926;7.080;2023-09-19T08:34:25;8.63;;;2.45;;
10132;SDS011;5106;50.926;7.080;2023-09-19T08:36:54;7.30;;;2.15;;
10132;SDS011;5106;50.926;7.080;2023-09-19T08:39:23;5.63;;;2.40;;
10132;SDS011;5106;50.926;7.080;2023-09-19T08:41:49;5.95;;;2.45;;
10132;SDS011;5106;50.926;7.080;2023-09-19T08:44:24;6.70;;;2.42;;
10132;SDS011;5106;50.926;7.080;2023-09-19T08:46:50;9.93;;;2.80;;
10132;SDS011;5106;50.926;7.080;2023-09-19T08:52:32;7.60;;;2.70;;
10132;SDS011;5106;50.926;7.080;2023-09-19T08:55:02;5.15;;;2.28;;
10132;SDS011;5106;50.926;7.080;2023-09-19T08:57:35;7.07;;;2.30;;
10132;SDS011;5106;50.926;7.080;2023-09-19T09:00:06;8.70;;;2.65;;
10132;SDS011;5106;50.926;7.080;2023-09-19T09:02:39;4.93;;;2.13;;
10132;SDS011;5106;50.926;7.080;2023-09-19T09:05:08;8.98;;;2.17;;
10132;SDS011;5106;50.926;7.080;2023-09-19T09:07:35;8.40;;;2.53;;
10132;SDS011;5106;50.926;7.080;2023-09-19T09:10:05;6.57;;;2.20;;
10132;SDS011;5106;50.926;7.080;2023-09-19T09:12:32;7.18;;;2.20;;
10132;SDS011;5106;50.926;7.080;2023-09-19T09:14:59;9.18;;;2.40;;
10132;SDS011;5106;50.926;7.080;2023-09-19T09:17:25;5.15;;;2.20;;
10132;SDS011;5106;50.926;7.080;2023-09-19T09:19:54;6.90;;;2.38;;
10132;SDS011;5106;50.926;7.080;2023-09-19T09:22:20;7.15;;;2.58;;
10132;SDS011;5106;50.926;7.080;2023-09-19T09:27:28;5.95;;;2.13;;
10132;SDS011;5106;50.926;7.080;2023-09-19T09:29:54;7.03;;;2.47;;
10132;SDS011;5106;50.926;7.080;2023-09-19T09:32:26;6.80;;;2.35;;
10132;SDS011;5106;50.926;7.080;2023-09-19T09:34:54;5.00;;;2.10;;
10132;SDS011;5106;50.926;7.080;2023-09-19T09:37:22;5.18;;;2.58;;
10132;SDS011;5106;50.926;7.080;2023-09-19T09:39:57;9.45;;;2.35;;
10132;SDS011;5106;50.926;7.080;2023-09-19T09:42:42;6.90;;;2.25;;
10132;SDS011;5106;50.926;7.080;2023-09-19T09:45:12;8.95;;;2.42;;
10132;SDS011;5106;50.926;7.080;2023-09-19T09:47:42;6.63;;;2.22;;
10132;SDS011;5106;50.926;7.080;2023-09-19T09:50:23;5.65;;;1.77;;
10132;SDS011;5106;50.926;7.080;2023-09-19T09:53:25;5.53;;;2.08;;
10132;SDS011;5106;50.926;7.080;2023-09-19T09:56:04;5.53;;;2.15;;
10132;SDS011;5106;50.926;7.080;2023-09-19T09:58:34;8.75;;;2.40;;
10132;SDS011;5106;50.926;7.080;2023-09-19T10:01:01;3.58;;;1.85;;
10132;SDS011;5106;50.926;7.080;2023-09-19T10:03:37;6.93;;;2.15;;
10132;SDS011;5106;50.926;7.080;2023-09-19T10:06:13;5.30;;;2.22;;
10132;SDS011;5106;50.926;7.080;2023-09-19T10:09:03;6.80;;;2.10;;
10132;SDS011;5106;50.926;7.080;2023-09-19T10:11:46;8.93;;;2.08;;
10132;SDS011;5106;50.926;7.080;2023-09-19T10:14:21;7.72;;;2.17;;
10132;SDS011;5106;50.926;7.080;2023-09-19T10:16:54;5.80;;;2.15;;
10132;SDS011;5106;50.926;7.080;2023-09-19T10:19:30;4.25;;;2.00;;
10132;SDS011;5106;50.926;7.080;2023-09-19T10:22:01;5.45;;;2.13;;
10132;SDS011;5106;50.926;7.080;2023-09-19T10:24:29;5.65;;;2.10;;
10132;SDS011;5106;50.926;7.080;2023-09-19T10:26:56;4.40;;;2.10;;
10132;SDS011;5106;50.926;7.080;2023-09-19T10:29:22;5.15;;;2.40;;
10132;SDS011;5106;50.926;7.080;2023-09-19T10:31:52;21.17;;;2.72;;
10132;SDS011;5106;50.926;7.080;2023-09-19T10:34:19;4.47;;;2.00;;
10132;SDS011;5106;50.926;7.080;2023-09-19T10:36:47;6.60;;;2.20;;
10132;SDS011;5106;50.926;7.080;2023-09-19T10:39:16;4.80;;;1.73;;
10132;SDS011;5106;50.926;7.080;2023-09-19T10:41:51;4.65;;;1.92;;
10132;SDS011;5106;50.926;7.080;2023-09-19T10:44:24;8.82;;;2.03;;
10132;SDS011;5106;50.926;7.080;2023-09-19T10:46:50;5.68;;;2.17;;
10132;SDS011;5106;50.926;7.080;2023-09-19T10:49:17;4.10;;;1.92;;
10132;SDS011;5106;50.926;7.080;2023-09-19T10:51:44;4.80;;;2.22;;
10132;SDS011;5106;50.926;7.080;2023-09-19T10:54:12;3.25;;;1.35;;
10132;SDS011;5106;50.926;7.080;2023-09-19T10:56:48;4.90;;;2.03;;
10132;SDS011;5106;50.926;7.080;2023-09-19T10:59:17;5.10;;;1.95;;
10132;SDS011;5106;50.926;7.080;2023-09-19T11:01:44;3.80;;;1.92;;
10132;SDS011;5106;50.926;7.080;2023-09-19T11:04:20;4.35;;;1.75;;
10132;SDS011;5106;50.926;7.080;2023-09-19T11:06:59;4.45;;;1.80;;
10132;SDS011;5106;50.926;7.080;2023-09-19T11:12:31;5.20;;;1.90;;
10132;SDS011;5106;50.926;7.080;2023-09-19T11:15:06;6.40;;;2.20;;
10132;SDS011;5106;50.926;7.080;2023-09-19T11:25:41;6.45;;;2.35;;
10132;SDS011;5106;50.926;7.080;2023-09-19T11:30:43;6.65;;;2.30;;
10132;SDS011;5106;50.926;7.080;2023-09-19T11:36:12;3.28;;;1.98;;
10132;SDS011;5106;50.926;7.080;2023-09-19T11:46:25;6.30;;;1.95;;
10132;SDS011;5106;50.926;7.080;2023-09-19T11:48:52;5.22;;;2.20;;
10132;SDS011;5106;50.926;7.080;2023-09-19T11:51:22;4.93;;;2.40;;
10132;SDS011;5106;50.926;7.080;2023-09-19T11:53:52;4.40;;;2.13;;
10132;SDS011;5106;50.926;7.080;2023-09-19T11:56:23;4.63;;;1.77;;
10132;SDS011;5106;50.926;7.080;2023-09-19T11:58:51;7.07;;;2.10;;
10132;SDS011;5106;50.926;7.080;2023-09-19T12:01:30;6.28;;;1.98;;
10132;SDS011;5106;50.926;7.080;2023-09-19T12:03:59;9.15;;;2.53;;
10132;SDS011;5106;50.926;7.080;2023-09-19T12:06:27;3.75;;;1.80;;
10132;SDS011;5106;50.926;7.080;2023-09-19T12:08:54;3.70;;;1.80;;
10132;SDS011;5106;50.926;7.080;2023-09-19T12:11:22;3.78;;;1.80;;
10132;SDS011;5106;50.926;7.080;2023-09-19T12:13:50;4.72;;;1.80;;
10132;SDS011;5106;50.926;7.080;2023-09-19T12:16:16;6.65;;;2.00;;
10132;SDS011;5106;50.926;7.080;2023-09-19T12:18:47;4.90;;;1.92;;
10132;SDS011;5106;50.926;7.080;2023-09-19T12:21:52;4.00;;;2.00;;
10132;SDS011;5106;50.926;7.080;2023-09-19T12:24:13;5.55;;;1.83;;
10132;SDS011;5106;50.926;7.080;2023-09-19T12:26:42;6.43;;;1.80;;
10132;SDS011;5106;50.926;7.080;2023-09-19T12:29:14;5.63;;;1.70;;
10132;SDS011;5106;50.926;7.080;2023-09-19T12:31:55;6.18;;;2.00;;
10132;SDS011;5106;50.926;7.080;2023-09-19T12:34:29;4.70;;;1.65;;
10132;SDS011;5106;50.926;7.080;2023-09-19T12:39:43;3.63;;;1.98;;
10132;SDS011;5106;50.926;7.080;2023-09-19T12:42:21;4.63;;;1.77;;
10132;SDS011;5106;50.926;7.080;2023-09-19T12:44:48;3.95;;;1.90;;
10132;SDS011;5106;50.926;7.080;2023-09-19T12:47:21;3.80;;;1.60;;
10132;SDS011;5106;50.926;7.080;2023-09-19T12:52:54;16.75;;;2.38;;
10132;SDS011;5106;50.926;7.080;2023-09-19T12:55:30;3.67;;;2.08;;
10132;SDS011;5106;50.926;7.080;2023-09-19T13:00:40;8.30;;;2.17;;
10132;SDS011;5106;50.926;7.080;2023-09-19T13:05:54;6.53;;;1.90;;
10132;SDS011;5106;50.926;7.080;2023-09-19T13:08:23;4.00;;;2.05;;
10132;SDS011;5106;50.926;7.080;2023-09-19T13:11:10;3.97;;;1.70;;
10132;SDS011;5106;50.926;7.080;2023-09-19T13:14:24;4.20;;;1.70;;
10132;SDS011;5106;50.926;7.080;2023-09-19T13:16:56;6.22;;;1.95;;
10132;SDS011;5106;50.926;7.080;2023-09-19T13:19:39;7.43;;;1.75;;
10132;SDS011;5106;50.926;7.080;2023-09-19T13:25:14;5.38;;;1.58;;
10132;SDS011;5106;50.926;7.080;2023-09-19T13:27:53;5.85;;;1.73;;
10132;SDS011;5106;50.926;7.080;2023-09-19T13:30:21;5.03;;;1.65;;
10132;SDS011;5106;50.926;7.080;2023-09-19T13:32:50;6.10;;;1.73;;
10132;SDS011;5106;50.926;7.080;2023-09-19T13:35:17;5.13;;;1.42;;
10132;SDS011;5106;50.926;7.080;2023-09-19T13:37:42;3.45;;;1.40;;
10132;SDS011;5106;50.926;7.080;2023-09-19T13:40:10;4.88;;;1.52;;
10132;SDS011;5106;50.926;7.080;2023-09-19T13:42:36;6.38;;;1.75;;
10132;SDS011;5106;50.926;7.080;2023-09-19T13:45:03;5.32;;;1.73;;
10132;SDS011;5106;50.926;7.080;2023-09-19T13:47:33;2.92;;;1.42;;
10132;SDS011;5106;50.926;7.080;2023-09-19T13:50:01;2.70;;;1.42;;
10132;SDS011;5106;50.926;7.080;2023-09-19T13:52:29;2.92;;;1.40;;
10132;SDS011;5106;50.926;7.080;2023-09-19T13:54:55;5.53;;;1.60;;
10132;SDS011;5106;50.926;7.080;2023-09-19T13:57:30;3.25;;;1.40;;
10132;SDS011;5106;50.926;7.080;2023-09-19T13:59:58;2.92;;;1.30;;
10132;SDS011;5106;50.926;7.080;2023-09-19T14:02:24;4.72;;;1.42;;
10132;SDS011;5106;50.926;7.080;2023-09-19T14:04:49;4.03;;;1.50;;
10132;SDS011;5106;50.926;7.080;2023-09-19T14:07:24;6.25;;;1.27;;
10132;SDS011;5106;50.926;7.080;2023-09-19T14:09:50;9.32;;;1.60;;
10132;SDS011;5106;50.926;7.080;2023-09-19T14:12:16;2.67;;;1.35;;
10132;SDS011;5106;50.926;7.080;2023-09-19T14:14:41;7.30;;;1.50;;
10132;SDS011;5106;50.926;7.080;2023-09-19T14:17:07;3.45;;;1.50;;
10132;SDS011;5106;50.926;7.080;2023-09-19T14:19:34;3.03;;;1.45;;
10132;SDS011;5106;50.926;7.080;2023-09-19T14:22:02;4.53;;;1.30;;
10132;SDS011;5106;50.926;7.080;2023-09-19T14:24:32;2.58;;;1.15;;
10132;SDS011;5106;50.926;7.080;2023-09-19T14:26:58;2.40;;;1.38;;
10132;SDS011;5106;50.926;7.080;2023-09-19T14:29:24;1.48;;;1.00;;
10132;SDS011;5106;50.926;7.080;2023-09-19T14:31:50;3.45;;;1.52;;
10132;SDS011;5106;50.926;7.080;2023-09-19T14:34:17;2.95;;;1.48;;
10132;SDS011;5106;50.926;7.080;2023-09-19T14:36:42;3.65;;;1.40;;
10132;SDS011;5106;50.926;7.080;2023-09-19T14:39:08;5.15;;;1.30;;
10132;SDS011;5106;50.926;7.080;2023-09-19T14:41:33;3.30;;;1.30;;
10132;SDS011;5106;50.926;7.080;2023-09-19T14:44:01;1.02;;;0.85;;
10132;SDS011;5106;50.926;7.080;2023-09-19T14:46:27;4.18;;;1.20;;
10132;SDS011;5106;50.926;7.080;2023-09-19T14:48:53;3.42;;;1.25;;
10132;SDS011;5106;50.926;7.080;2023-09-19T14:51:19;2.22;;;1.00;;
10132;SDS011;5106;50.926;7.080;2023-09-19T14:53:45;3.72;;;1.20;;
10132;SDS011;5106;50.926;7.080;2023-09-19T14:56:12;5.63;;;1.92;;
10132;SDS011;5106;50.926;7.080;2023-09-19T14:58:38;3.03;;;1.08;;
10132;SDS011;5106;50.926;7.080;2023-09-19T15:01:07;2.95;;;1.33;;
10132;SDS011;5106;50.926;7.080;2023-09-19T15:03:37;2.92;;;1.23;;
10132;SDS011;5106;50.926;7.080;2023-09-19T15:06:05;5.40;;;1.55;;
10132;SDS011;5106;50.926;7.080;2023-09-19T15:08:34;5.20;;;1.30;;
10132;SDS011;5106;50.926;7.080;2023-09-19T15:11:01;6.05;;;1.33;;
10132;SDS011;5106;50.926;7.080;2023-09-19T15:13:30;4.85;;;1.25;;
10132;SDS011;5106;50.926;7.080;2023-09-19T15:16:03;5.22;;;1.10;;
10132;SDS011;5106;50.926;7.080;2023-09-19T15:18:29;3.10;;;1.17;;
10132;SDS011;5106;50.926;7.080;2023-09-19T15:20:56;2.90;;;1.30;;
10132;SDS011;5106;50.926;7.080;2023-09-19T15:23:25;3.08;;;1.10;;
10132;SDS011;5106;50.926;7.080;2023-09-19T15:25:50;4.03;;;1.20;;
10132;SDS011;5106;50.926;7.080;2023-09-19T15:28:18;5.50;;;1.40;;
10132;SDS011;5106;50.926;7.080;2023-09-19T15:30:44;3.70;;;1.10;;
10132;SDS011;5106;50.926;7.080;2023-09-19T15:33:09;1.30;;;1.00;;
10132;SDS011;5106;50.926;7.080;2023-09-19T15:35:35;3.72;;;1.20;;
10132;SDS011;5106;50.926;7.080;2023-09-19T15:38:02;3.13;;;1.27;;
10132;SDS011;5106;50.926;7.080;2023-09-19T15:40:29;2.65;;;1.13;;
10132;SDS011;5106;50.926;7.080;2023-09-19T15:42:54;3.80;;;1.30;;
10132;SDS011;5106;50.926;7.080;2023-09-19T15:45:23;5.13;;;1.40;;
10132;SDS011;5106;50.926;7.080;2023-09-19T15:47:50;2.85;;;0.98;;
10132;SDS011;5106;50.926;7.080;2023-09-19T15:50:16;3.13;;;1.20;;
10132;SDS011;5106;50.926;7.080;2023-09-19T15:52:42;4.45;;;1.20;;
10132;SDS011;5106;50.926;7.080;2023-09-19T15:55:08;2.88;;;1.23;;
10132;SDS011;5106;50.926;7.080;2023-09-19T15:57:36;3.08;;;1.13;;
10132;SDS011;5106;50.926;7.080;2023-09-19T16:00:02;2.65;;;1.10;;
10132;SDS011;5106;50.926;7.080;2023-09-19T16:02:30;4.07;;;1.25;;
10132;SDS011;5106;50.926;7.080;2023-09-19T16:04:56;2.90;;;1.15;;
10132;SDS011;5106;50.926;7.080;2023-09-19T16:07:21;2.25;;;1.17;;
10132;SDS011;5106;50.926;7.080;2023-09-19T16:09:47;6.60;;;1.50;;
10132;SDS011;5106;50.926;7.080;2023-09-19T16:12:13;3.30;;;1.17;;
10132;SDS011;5106;50.926;7.080;2023-09-19T16:14:39;1.85;;;1.13;;
10132;SDS011;5106;50.926;7.080;2023-09-19T16:17:05;2.88;;;1.20;;
10132;SDS011;5106;50.926;7.080;2023-09-19T16:19:32;4.57;;;1.38;;
10132;SDS011;5106;50.926;7.080;2023-09-19T16:21:58;2.25;;;1.10;;
10132;SDS011;5106;50.926;7.080;2023-09-19T16:24:24;1.67;;;1.05;;
10132;SDS011;5106;50.926;7.080;2023-09-19T16:26:51;4.63;;;1.67;;
10132;SDS011;5106;50.926;7.080;2023-09-19T16:29:18;2.50;;;1.30;;
10132;SDS011;5106;50.926;7.080;2023-09-19T16:31:49;4.50;;;1.30;;
10132;SDS011;5106;50.926;7.080;2023-09-19T16:34:15;2.60;;;1.40;;
10132;SDS011;5106;50.926;7.080;2023-09-19T16:36:40;4.72;;;1.60;;
10132;SDS011;5106;50.926;7.080;2023-09-19T16:39:06;5.18;;;1.30;;
10132;SDS011;5106;50.926;7.080;2023-09-19T16:41:32;7.95;;;1.30;;
10132;SDS011;5106;50.926;7.080;2023-09-19T16:43:59;3.15;;;1.30;;
10132;SDS011;5106;50.926;7.080;2023-09-19T16:46:28;3.22;;;1.40;;
10132;SDS011;5106;50.926;7.080;2023-09-19T16:48:54;3.88;;;1.30;;
10132;SDS011;5106;50.926;7.080;2023-09-19T16:51:20;7.45;;;1.27;;
10132;SDS011;5106;50.926;7.080;2023-09-19T16:53:46;9.95;;;1.70;;
10132;SDS011;5106;50.926;7.080;2023-09-19T16:56:13;1.92;;;1.10;;
10132;SDS011;5106;50.926;7.080;2023-09-19T16:58:42;13.07;;;2.10;;
10132;SDS011;5106;50.926;7.080;2023-09-19T17:01:09;17.60;;;1.70;;
10132;SDS011;5106;50.926;7.080;2023-09-19T17:03:39;4.72;;;1.58;;
10132;SDS011;5106;50.926;7.080;2023-09-19T17:06:06;2.92;;;1.40;;
10132;SDS011;5106;50.926;7.080;2023-09-19T17:08:32;2.63;;;1.42;;
10132;SDS011;5106;50.926;7.080;2023-09-19T17:11:05;8.70;;;1.40;;
10132;SDS011;5106;50.926;7.080;2023-09-19T17:13:34;4.28;;;1.25;;
10132;SDS011;5106;50.926;7.080;2023-09-19T17:16:04;4.53;;;1.70;;
10132;SDS011;5106;50.926;7.080;2023-09-19T17:18:34;2.72;;;1.30;;
10132;SDS011;5106;50.926;7.080;2023-09-19T17:21:05;4.57;;;1.33;;
10132;SDS011;5106;50.926;7.080;2023-09-19T17:23:33;3.50;;;1.33;;
10132;SDS011;5106;50.926;7.080;2023-09-19T17:28:29;2.95;;;1.20;;
10132;SDS011;5106;50.926;7.080;2023-09-19T17:30:55;2.55;;;1.13;;
10132;SDS011;5106;50.926;7.080;2023-09-19T17:33:22;2.75;;;1.33;;
10132;SDS011;5106;50.926;7.080;2023-09-19T17:35:49;3.22;;;1.35;;
10132;SDS011;5106;50.926;7.080;2023-09-19T17:38:14;3.45;;;1.30;;
10132;SDS011;5106;50.926;7.080;2023-09-19T17:40:40;2.70;;;1.30;;
10132;SDS011;5106;50.926;7.080;2023-09-19T17:43:07;5.35;;;1.48;;
10132;SDS011;5106;50.926;7.080;2023-09-19T17:45:33;5.10;;;1.20;;
10132;SDS011;5106;50.926;7.080;2023-09-19T17:47:59;3.92;;;1.45;;
10132;SDS011;5106;50.926;7.080;2023-09-19T17:50:25;3.00;;;1.35;;
10132;SDS011;5106;50.926;7.080;2023-09-19T17:52:51;1.75;;;1.20;;
10132;SDS011;5106;50.926;7.080;2023-09-19T17:55:17;3.15;;;1.15;;
10132;SDS011;5106;50.926;7.080;2023-09-19T17:57:43;2.72;;;1.50;;
10132;SDS011;5106;50.926;7.080;2023-09-19T18:00:10;2.17;;;1.30;;
10132;SDS011;5106;50.926;7.080;2023-09-19T18:02:38;1.73;;;1.20;;
10132;SDS011;5106;50.926;7.080;2023-09-19T18:05:04;3.50;;;1.35;;
10132;SDS011;5106;50.926;7.080;2023-09-19T18:07:30;3.50;;;1.20;;
10132;SDS011;5106;50.926;7.080;2023-09-19T18:09:56;1.75;;;1.00;;
10132;SDS011;5106;50.926;7.080;2023-09-19T18:12:25;4.25;;;1.70;;
10132;SDS011;5106;50.926;7.080;2023-09-19T18:14:52;3.53;;;1.50;;
10132;SDS011;5106;50.926;7.080;2023-09-19T18:17:19;3.67;;;1.50;;
10132;SDS011;5106;50.926;7.080;2023-09-19T18:19:46;4.07;;;1.52;;
10132;SDS011;5106;50.926;7.080;2023-09-19T18:22:13;2.22;;;1.48;;
10132;SDS011;5106;50.926;7.080;2023-09-19T18:24:39;3.30;;;1.23;;
10132;SDS011;5106;50.926;7.080;2023-09-19T18:27:06;3.47;;;1.23;;